If you wish to contribute or participate in the discussions about articles you are invited to join SKYbrary as a registered user

 Actions

Rafael Núñez International Airport

From SKYbrary Wiki

SKCG
Airport
ICAO: SKCG – IATA: CTG
Summary
Name Rafael Núñez International Airport
Region South America and Caribbean
Territory Colombia CO.gif
Location Urbanizacion Eliana, Bolivar Department
Serving Cartagena
Elevation 2.134 m
7 ft2.134 m
Coordinates 10° 26' 46.73" N, 75° 30' 59.23" W
Runways
Designator Length Width Surface ROPS
1/19 2600 m8,530.184 ft
45 m147.638 ft
ASP yes/yes


METAR
Observation SKCG 111800Z 29008KT 260V350 9999 FEW017 BKN200 31/24 A2983
Station Cartagena / Rafael Nunez
Date/Time 11 December 2019 18:00:00
Wind direction 290°
Wind speed 08 kts
Lowest cloud amount few clouds
Temperature 31°C
Dew point 24°C
Humidity 66%
QNH hPa
Weather condition n/a

Rafael Núñez International Airport is an airport serving the Caribbean port city of Cartagena, Colombia.

Climatology

Tropical savanna climate (Köppen climate classification Aw)

Maps

Terrain

Loading map...

Airport Layout

Loading map...


Accidents & Serious Incidents at or in vicinity of SKCG

None on SKYbrary